Archival Weather

Chicago O'Hare International

Chicago, Illinois (KORD)

Report from: Saturday, March 5, 2022 2:51 AM CST
Current time: Saturday, February 4, 2023 10:26 PM CST

Current weather
Weather history
Weather forecast

Temperature5.6°C (42.1°F)
Wind chill3.2°C (37.7°F)
Dew point-4.4°C (24.1°F)
Winds 6 kts (3.1 m/s, 6.9 mph) Southeast (140°)
Visibility10 mi. (16.1 km)
Clouds Ceiling: Overcast 15,000 ft. (4,572 m)
Altimeter30.04 in.Hg (1017 mB)
Relative humidity49 %
Density altitude-1,200 ft. (-366 m)
Sea-level pressure101.8 kPa (1018 mB, 30.06 in.Hg)
Remarks Automated weather observing station with precipitation discriminator
Pressure falling more slowly
Flight conditions Visual Meteorological Conditions
Raw dataKORD 050851Z 14006KT 10SM OVC150 06/M04 A3004 RMK AO2 SLP178 T00561044 56020
An unhandled exception has occurred. See browser dev tools for details. Reload 🗙